Tourist Ferry Boat 3 — IQAQ — position and weather

sailwx.info

Track history (hours):
 
Tides and Currents Weather Stations Pressure Air Temp Water Temp Dewpoint Dewpoint Depression Visibility Wind Speed Wind Dir Waves Ship Positions

Tourist Ferry Boat 3

Last reported at 2018-Aug-15 12:30 UTC. Time now 2018-Aug-15 12:38 UTC.
Position N 40°49' E 014°07'.

Length 58 m; draft 2.5 m.

Type: Ship. MMSI: 247048900.

Date/timePositionNaut miles runAvg speedWind from/ knotsBaromVisibWave heightAir tempDewpointWater temp
2018-Aug-15 12:30N 40°49' E 014°07'1 2.3
2018-Aug-15 12:00N 40°49' E 014°06'4 8.6
2018-Aug-15 11:30N 40°46' E 014°02'4 7.3
2018-Aug-15 11:00N 40°47' E 014°06'2 4.6
2018-Aug-15 10:30N 40°49' E 014°07'0 0.2
2018-Aug-15 10:00N 40°49' E 014°07'5 9.2
2018-Aug-15 09:30N 40°46' E 014°03'0 1.0
2018-Aug-15 09:00N 40°46' E 014°03'4 8.3
2018-Aug-15 08:30N 40°49' E 014°07'0 0.1
2018-Aug-15 08:00N 40°49' E 014°07'0 0.0
2018-Aug-15 07:30N 40°49' E 014°07'1 2.9
2018-Aug-15 07:00N 40°48' E 014°06'4 8.0
2018-Aug-15 06:30N 40°46' E 014°02'4 7.1
2018-Aug-15 06:00N 40°47' E 014°06'3 0.2
2018-Aug-14 15:25N 40°49' E 014°07'3 7.3
2018-Aug-14 15:00N 40°47' E 014°06'3 5.7
2018-Aug-14 14:29N 40°46' E 014°02'4 8.8
2018-Aug-14 14:00N 40°49' E 014°06'1 1.8
2018-Aug-14 13:30N 40°49' E 014°07'0 0.0
2018-Aug-14 13:00N 40°49' E 014°07'0 0.0
2018-Aug-14 12:30N 40°49' E 014°07'2 3.1
2018-Aug-14 12:00N 40°48' E 014°06'4 8.1
2018-Aug-14 11:30N 40°46' E 014°02'3 6.3
2018-Aug-14 11:00N 40°47' E 014°06'3 5.9
2018-Aug-14 10:30N 40°49' E 014°07'0 0.0
2018-Aug-14 10:00N 40°49' E 014°07'4 8.3
2018-Aug-14 09:30N 40°46' E 014°03'1 1.6
2018-Aug-14 09:00N 40°46' E 014°02'5 9.1
2018-Aug-14 08:29N 40°49' E 014°07'0 0.7
2018-Aug-14 07:59N 40°49' E 014°07'0 0.0
2018-Aug-14 07:30N 40°49' E 014°07'1 1.9
2018-Aug-14 07:00N 40°49' E 014°06'4 8.9
2018-Aug-14 06:30N 40°46' E 014°02'2 4.6
2018-Aug-14 06:00N 40°46' E 014°05'4 6.5
2018-Aug-14 05:28N 40°49' E 014°07'2 5.0
2018-Aug-14 05:00N 40°47' E 014°06'4 6.8
2018-Aug-14 04:29N 40°46' E 014°02'4 9.3
2018-Aug-14 04:00N 40°49' E 014°06'1 0.1
2018-Aug-13 15:22N 40°49' E 014°07'3 9.3
2018-Aug-13 15:00N 40°46' E 014°05'3 5.6
2018-Aug-13 14:30N 40°46' E 014°02'4 9.0
2018-Aug-13 14:00N 40°49' E 014°06'1 1.8
2018-Aug-13 13:30N 40°49' E 014°07'0 0.0
2018-Aug-13 13:00N 40°49' E 014°07'0 0.0
2018-Aug-13 12:30N 40°49' E 014°07'1 2.6
2018-Aug-13 12:00N 40°48' E 014°06'4 8.4
2018-Aug-13 11:30N 40°46' E 014°02'3 6.5
2018-Aug-13 11:00N 40°47' E 014°06'3 5.7
2018-Aug-13 10:30N 40°49' E 014°07'0 0.4
2018-Aug-13 10:00N 40°49' E 014°07'4 9.0
2018-Aug-13 09:30N 40°46' E 014°03'0 0.7
2018-Aug-13 09:00N 40°46' E 014°02'5 9.2
2018-Aug-13 08:30N 40°49' E 014°07'0 0.8
2018-Aug-13 08:00N 40°49' E 014°07'0 0.0
2018-Aug-13 07:30N 40°49' E 014°07'1 2.5
2018-Aug-13 07:00N 40°48' E 014°06'4 8.4
2018-Aug-13 06:30N 40°46' E 014°02'2 4.4
2018-Aug-13 06:00N 40°46' E 014°04'4 7.2
2018-Aug-13 05:30N 40°49' E 014°07'3 5.9
2018-Aug-13 05:00N 40°47' E 014°06'3 5.8
2018-Aug-13 04:30N 40°46' E 014°02'5 9.3
2018-Aug-13 04:00N 40°49' E 014°06'0 0.0
2018-Aug-12 15:20N 40°49' E 014°07'3 9.7
2018-Aug-12 15:00N 40°46' E 014°05'3 5.3
2018-Aug-12 14:30N 40°46' E 014°02'4 8.9
2018-Aug-12 14:00N 40°49' E 014°06'1 1.3
2018-Aug-12 13:30N 40°49' E 014°07'0 0.0
2018-Aug-12 13:00N 40°49' E 014°07'0 0.0
2018-Aug-12 12:30N 40°49' E 014°07'1 3.0
2018-Aug-12 12:00N 40°48' E 014°06'4 7.8
2018-Aug-12 11:29N 40°46' E 014°02'3 7.0
2018-Aug-12 11:00N 40°47' E 014°06'3 5.6
2018-Aug-12 10:30N 40°49' E 014°07'0 0.0
2018-Aug-12 10:00N 40°49' E 014°07'4 8.9
2018-Aug-12 09:30N 40°46' E 014°03'0 0.9
2018-Aug-12 09:00N 40°46' E 014°02'5 9.1
2018-Aug-12 08:30N 40°49' E 014°07'0 0.6
2018-Aug-12 08:00N 40°49' E 014°07'0 0.0
2018-Aug-12 07:30N 40°49' E 014°07'2 3.8
2018-Aug-12 07:00N 40°48' E 014°06'4 7.5
2018-Aug-12 06:30N 40°46' E 014°02'4 7.7
2018-Aug-12 06:00N 40°48' E 014°06'2 0.1
2018-Aug-11 15:20N 40°49' E 014°07'3 9.0
2018-Aug-11 15:00N 40°47' E 014°06'3 6.2
2018-Aug-11 14:30N 40°46' E 014°02'4 8.9
2018-Aug-11 14:00N 40°49' E 014°06'1 1.4
2018-Aug-11 13:30N 40°49' E 014°07'0 0.0
2018-Aug-11 13:00N 40°49' E 014°07'0 0.0
2018-Aug-11 12:30N 40°49' E 014°07'1 2.8
2018-Aug-11 12:00N 40°48' E 014°06'4 7.7
2018-Aug-11 11:28N 40°46' E 014°02'3 7.3
2018-Aug-11 11:00N 40°47' E 014°06'3 5.3
2018-Aug-11 10:30N 40°49' E 014°07'0 0.0
2018-Aug-11 10:00N 40°49' E 014°07'4 8.3
2018-Aug-11 09:30N 40°46' E 014°03'1 1.3
2018-Aug-11 09:00N 40°46' E 014°02'4 8.9
2018-Aug-11 08:30N 40°49' E 014°07'0 0.6
2018-Aug-11 08:00N 40°49' E 014°07'0 0.0
2018-Aug-11 07:30N 40°49' E 014°07'2 4.2
2018-Aug-11 07:00N 40°47' E 014°06'4 7.1
2018-Aug-11 06:29N 40°46' E 014°02'3 6.9
2018-Aug-11 06:00N 40°47' E 014°06'3 5.6
2018-Aug-11 05:31N 40°49' E 014°07'0 0.0
2018-Aug-10 15:21N 40°49' E 014°07'3 9.3
2018-Aug-10 15:00N 40°46' E 014°06'3 5.4
2018-Aug-10 14:30N 40°46' E 014°02'4 8.9
2018-Aug-10 14:00N 40°49' E 014°06'1 1.2
2018-Aug-10 13:30N 40°49' E 014°07'0 0.0
2018-Aug-10 13:00N 40°49' E 014°07'0 0.0
2018-Aug-10 12:30N 40°49' E 014°07'2 3.4
2018-Aug-10 12:00N 40°48' E 014°06'4 8.0
2018-Aug-10 11:30N 40°46' E 014°02'3 6.5
2018-Aug-10 11:00N 40°47' E 014°06'3 5.8
2018-Aug-10 10:30N 40°49' E 014°07'0 0.0
2018-Aug-10 10:00N 40°49' E 014°07'4 8.6
2018-Aug-10 09:30N 40°46' E 014°03'1 1.8
2018-Aug-10 09:00N 40°46' E 014°02'5 9.1
2018-Aug-10 08:30N 40°49' E 014°06'0 0.9
2018-Aug-10 08:00N 40°49' E 014°07'0 0.0
2018-Aug-10 07:30N 40°49' E 014°07'1 2.1
2018-Aug-10 07:00N 40°49' E 014°06'4 8.6
2018-Aug-10 06:30N 40°46' E 014°02'2 4.8
2018-Aug-10 06:00N 40°47' E 014°05'3 6.9
2018-Aug-10 05:30N 40°49' E 014°07'3 5.5
2018-Aug-10 05:00N 40°47' E 014°06'3 6.9
2018-Aug-10 04:30N 40°46' E 014°02'5 9.0
2018-Aug-10 04:00N 40°49' E 014°06'1 0.1
2018-Aug-09 15:21N 40°49' E 014°07'3 9.6
2018-Aug-09 15:00N 40°46' E 014°05'3 5.8
2018-Aug-09 14:30N 40°46' E 014°02'5 9.0
2018-Aug-09 14:00N 40°49' E 014°06'1 1.7
2018-Aug-09 13:30N 40°49' E 014°07'0 0.0
2018-Aug-09 13:00N 40°49' E 014°07'0 0.0
2018-Aug-09 12:30N 40°49' E 014°07'2 3.1
2018-Aug-09 12:00N 40°48' E 014°06'4 8.1
2018-Aug-09 11:30N 40°46' E 014°02'4 7.0
2018-Aug-09 11:00N 40°47' E 014°06'2 4.8
2018-Aug-09 10:30N 40°49' E 014°07'0 0.0
2018-Aug-09 10:00N 40°49' E 014°07'4 8.5
2018-Aug-09 09:30N 40°46' E 014°03'1 1.6
2018-Aug-09 09:00N 40°46' E 014°02'5 9.1
2018-Aug-09 08:30N 40°49' E 014°07'0 0.6
2018-Aug-09 07:59N 40°49' E 014°07'0 0.0
2018-Aug-09 07:27N 40°49' E 014°07'1 2.5
2018-Aug-09 07:00N 40°48' E 014°06'4 8.6
2018-Aug-09 06:30N 40°46' E 014°02'2 4.0
2018-Aug-09 06:00N 40°46' E 014°04'4 5.2
2018-Aug-09 05:19N 40°49' E 014°07'310.2
2018-Aug-09 05:00N 40°46' E 014°05'2 4.5
2018-Aug-09 04:30N 40°46' E 014°02'5 9.1
2018-Aug-09 04:00N 40°49' E 014°07'0 0.0
2018-Aug-08 15:22N 40°49' E 014°07'3 9.1
2018-Aug-08 15:00N 40°46' E 014°05'3 5.3
2018-Aug-08 14:28N 40°46' E 014°02'4 9.1
2018-Aug-08 14:00N 40°48' E 014°06'1 2.0
2018-Aug-08 13:24N 40°49' E 014°07'0 0.0
2018-Aug-08 12:51N 40°49' E 014°07'0 0.0
2018-Aug-08 12:25N 40°49' E 014°07'3 6.8
2018-Aug-08 12:00N 40°47' E 014°06'3 6.3
2018-Aug-08 11:28N 40°46' E 014°02'4 8.2
2018-Aug-08 11:01N 40°48' E 014°06'2 1.9
2018-Aug-08 09:59N 40°49' E 014°07'5 8.7
2018-Aug-08 09:27N 40°46' E 014°02'0 0.3
2018-Aug-08 09:00N 40°46' E 014°02'4 8.9
2018-Aug-08 08:30N 40°49' E 014°06'1 0.5
2018-Aug-08 07:28N 40°49' E 014°07'1 2.5
2018-Aug-08 07:00N 40°48' E 014°06'4 8.4
2018-Aug-08 06:30N 40°46' E 014°02'3 5.3
2018-Aug-08 06:00N 40°46' E 014°05'3 5.8
2018-Aug-08 05:26N 40°49' E 014°07'1 3.3
2018-Aug-08 05:00N 40°48' E 014°06'4 6.8
2018-Aug-08 04:24N 40°46' E 014°02'4 9.3
2018-Aug-08 04:00N 40°47' E 014°06'2 0.2
2018-Aug-07 15:22N 40°49' E 014°07'3 9.7
2018-Aug-07 15:00N 40°46' E 014°05'2 4.6
2018-Aug-07 14:30N 40°46' E 014°02'4 8.9
2018-Aug-07 14:00N 40°49' E 014°06'1 1.7
2018-Aug-07 13:30N 40°49' E 014°07'0 0.0
2018-Aug-07 13:00N 40°49' E 014°07'0 0.0
2018-Aug-07 12:28N 40°49' E 014°07'1 3.0
2018-Aug-07 12:00N 40°48' E 014°06'4 8.2
2018-Aug-07 11:30N 40°46' E 014°02'3 6.5
2018-Aug-07 11:00N 40°47' E 014°06'3 5.9
2018-Aug-07 10:30N 40°49' E 014°07'0 0.0
2018-Aug-07 10:00N 40°49' E 014°07'4 8.2
2018-Aug-07 09:30N 40°46' E 014°03'1 2.3
2018-Aug-07 09:00N 40°46' E 014°02'4 9.0
2018-Aug-07 08:30N 40°49' E 014°06'1 1.0
2018-Aug-07 07:58N 40°49' E 014°07'0 0.0
2018-Aug-07 07:29N 40°49' E 014°07'1 2.5
2018-Aug-07 07:00N 40°48' E 014°06'4 8.2
2018-Aug-07 06:29N 40°46' E 014°02'2 5.1
2018-Aug-07 06:00N 40°47' E 014°05'3 6.8
2018-Aug-07 05:30N 40°49' E 014°07'3 5.2
2018-Aug-07 05:00N 40°47' E 014°06'3 6.8
2018-Aug-07 04:30N 40°46' E 014°02'4 8.5
2018-Aug-07 04:00N 40°48' E 014°06'1 0.1
2018-Aug-06 15:22N 40°49' E 014°07'3 8.8
2018-Aug-06 15:00N 40°47' E 014°06'3 6.0
2018-Aug-06 14:30N 40°46' E 014°02'5 9.2
2018-Aug-06 14:00N 40°49' E 014°06'1 1.4
2018-Aug-06 13:30N 40°49' E 014°07'0 0.0
2018-Aug-06 13:00N 40°49' E 014°07'0 0.0
2018-Aug-06 12:30N 40°49' E 014°07'2 3.6
2018-Aug-06 12:00N 40°48' E 014°06'4 7.9
2018-Aug-06 11:30N 40°46' E 014°02'3 6.7
2018-Aug-06 11:00N 40°47' E 014°06'3 5.4
2018-Aug-06 10:30N 40°49' E 014°07'0 0.0
2018-Aug-06 10:00N 40°49' E 014°07'4 8.5
2018-Aug-06 09:30N 40°46' E 014°03'1 2.0
2018-Aug-06 09:00N 40°46' E 014°02'4 8.9
2018-Aug-06 08:30N 40°49' E 014°06'1 1.0
2018-Aug-06 08:00N 40°49' E 014°07'0 0.0
2018-Aug-06 07:30N 40°49' E 014°07'1 2.2
2018-Aug-06 07:00N 40°49' E 014°06'4 8.3
2018-Aug-06 06:29N 40°46' E 014°02'2 4.8
2018-Aug-06 06:00N 40°46' E 014°05'4 7.0
2018-Aug-06 05:30N 40°49' E 014°07'2 3.5
2018-Aug-06 05:00N 40°48' E 014°06'4 7.8
2018-Aug-06 04:30N 40°46' E 014°02'4 8.1
2018-Aug-06 04:00N 40°48' E 014°06'2 0.1
2018-Aug-05 15:19N 40°49' E 014°07'3 9.2
2018-Aug-05 15:00N 40°47' E 014°06'2 2.2
2018-Aug-05 14:00N 40°49' E 014°06'1 1.6
2018-Aug-05 13:30N 40°49' E 014°07'0 0.0
2018-Aug-05 13:00N 40°49' E 014°07'  
Track history (hours):
 
Tides and Currents Weather Stations Pressure Air Temp Water Temp Dewpoint Dewpoint Depression Visibility Wind Speed Wind Dir Waves Ship Positions

Tourist Ferry Boat 3

Last reported at 2018-Aug-15 12:30 UTC. Time now 2018-Aug-15 12:38 UTC.
Position N 40°49' E 014°07'.

Length 58 m; draft 2.5 m.

Type: Ship. MMSI: 247048900.

Date/timePositionNaut miles runAvg speedWind from/ knotsBaromVisibWave heightAir tempDewpointWater temp
2018-Aug-15 12:30N 40°49' E 014°07'1 2.3
2018-Aug-15 12:00N 40°49' E 014°06'4 8.6
2018-Aug-15 11:30N 40°46' E 014°02'4 7.3
2018-Aug-15 11:00N 40°47' E 014°06'2 4.6
2018-Aug-15 10:30N 40°49' E 014°07'0 0.2
2018-Aug-15 10:00N 40°49' E 014°07'5 9.2
2018-Aug-15 09:30N 40°46' E 014°03'0 1.0
2018-Aug-15 09:00N 40°46' E 014°03'4 8.3
2018-Aug-15 08:30N 40°49' E 014°07'0 0.1
2018-Aug-15 08:00N 40°49' E 014°07'0 0.0
2018-Aug-15 07:30N 40°49' E 014°07'1 2.9
2018-Aug-15 07:00N 40°48' E 014°06'4 8.0
2018-Aug-15 06:30N 40°46' E 014°02'4 7.1
2018-Aug-15 06:00N 40°47' E 014°06'3 0.2
2018-Aug-14 15:25N 40°49' E 014°07'3 7.3
2018-Aug-14 15:00N 40°47' E 014°06'3 5.7
2018-Aug-14 14:29N 40°46' E 014°02'4 8.8
2018-Aug-14 14:00N 40°49' E 014°06'1 1.8
2018-Aug-14 13:30N 40°49' E 014°07'0 0.0
2018-Aug-14 13:00N 40°49' E 014°07'0 0.0
2018-Aug-14 12:30N 40°49' E 014°07'2 3.1
2018-Aug-14 12:00N 40°48' E 014°06'4 8.1
2018-Aug-14 11:30N 40°46' E 014°02'3 6.3
2018-Aug-14 11:00N 40°47' E 014°06'3 5.9
2018-Aug-14 10:30N 40°49' E 014°07'0 0.0
2018-Aug-14 10:00N 40°49' E 014°07'4 8.3
2018-Aug-14 09:30N 40°46' E 014°03'1 1.6
2018-Aug-14 09:00N 40°46' E 014°02'5 9.1
2018-Aug-14 08:29N 40°49' E 014°07'0 0.7
2018-Aug-14 07:59N 40°49' E 014°07'0 0.0
2018-Aug-14 07:30N 40°49' E 014°07'1 1.9
2018-Aug-14 07:00N 40°49' E 014°06'4 8.9
2018-Aug-14 06:30N 40°46' E 014°02'2 4.6
2018-Aug-14 06:00N 40°46' E 014°05'4 6.5
2018-Aug-14 05:28N 40°49' E 014°07'2 5.0
2018-Aug-14 05:00N 40°47' E 014°06'4 6.8
2018-Aug-14 04:29N 40°46' E 014°02'4 9.3
2018-Aug-14 04:00N 40°49' E 014°06'1 0.1
2018-Aug-13 15:22N 40°49' E 014°07'3 9.3
2018-Aug-13 15:00N 40°46' E 014°05'3 5.6
2018-Aug-13 14:30N 40°46' E 014°02'4 9.0
2018-Aug-13 14:00N 40°49' E 014°06'1 1.8
2018-Aug-13 13:30N 40°49' E 014°07'0 0.0
2018-Aug-13 13:00N 40°49' E 014°07'0 0.0
2018-Aug-13 12:30N 40°49' E 014°07'1 2.6
2018-Aug-13 12:00N 40°48' E 014°06'4 8.4
2018-Aug-13 11:30N 40°46' E 014°02'3 6.5
2018-Aug-13 11:00N 40°47' E 014°06'3 5.7
2018-Aug-13 10:30N 40°49' E 014°07'0 0.4
2018-Aug-13 10:00N 40°49' E 014°07'4 9.0
2018-Aug-13 09:30N 40°46' E 014°03'0 0.7
2018-Aug-13 09:00N 40°46' E 014°02'5 9.2
2018-Aug-13 08:30N 40°49' E 014°07'0 0.8
2018-Aug-13 08:00N 40°49' E 014°07'0 0.0
2018-Aug-13 07:30N 40°49' E 014°07'1 2.5
2018-Aug-13 07:00N 40°48' E 014°06'4 8.4
2018-Aug-13 06:30N 40°46' E 014°02'2 4.4
2018-Aug-13 06:00N 40°46' E 014°04'4 7.2
2018-Aug-13 05:30N 40°49' E 014°07'3 5.9
2018-Aug-13 05:00N 40°47' E 014°06'3 5.8
2018-Aug-13 04:30N 40°46' E 014°02'5 9.3
2018-Aug-13 04:00N 40°49' E 014°06'0 0.0
2018-Aug-12 15:20N 40°49' E 014°07'3 9.7
2018-Aug-12 15:00N 40°46' E 014°05'3 5.3
2018-Aug-12 14:30N 40°46' E 014°02'4 8.9
2018-Aug-12 14:00N 40°49' E 014°06'1 1.3
2018-Aug-12 13:30N 40°49' E 014°07'0 0.0
2018-Aug-12 13:00N 40°49' E 014°07'0 0.0
2018-Aug-12 12:30N 40°49' E 014°07'1 3.0
2018-Aug-12 12:00N 40°48' E 014°06'4 7.8
2018-Aug-12 11:29N 40°46' E 014°02'3 7.0
2018-Aug-12 11:00N 40°47' E 014°06'3 5.6
2018-Aug-12 10:30N 40°49' E 014°07'0 0.0
2018-Aug-12 10:00N 40°49' E 014°07'4 8.9
2018-Aug-12 09:30N 40°46' E 014°03'0 0.9
2018-Aug-12 09:00N 40°46' E 014°02'5 9.1
2018-Aug-12 08:30N 40°49' E 014°07'0 0.6
2018-Aug-12 08:00N 40°49' E 014°07'0 0.0
2018-Aug-12 07:30N 40°49' E 014°07'2 3.8
2018-Aug-12 07:00N 40°48' E 014°06'4 7.5
2018-Aug-12 06:30N 40°46' E 014°02'4 7.7
2018-Aug-12 06:00N 40°48' E 014°06'2 0.1
2018-Aug-11 15:20N 40°49' E 014°07'3 9.0
2018-Aug-11 15:00N 40°47' E 014°06'3 6.2
2018-Aug-11 14:30N 40°46' E 014°02'4 8.9
2018-Aug-11 14:00N 40°49' E 014°06'1 1.4
2018-Aug-11 13:30N 40°49' E 014°07'0 0.0
2018-Aug-11 13:00N 40°49' E 014°07'0 0.0
2018-Aug-11 12:30N 40°49' E 014°07'1 2.8
2018-Aug-11 12:00N 40°48' E 014°06'4 7.7
2018-Aug-11 11:28N 40°46' E 014°02'3 7.3
2018-Aug-11 11:00N 40°47' E 014°06'3 5.3
2018-Aug-11 10:30N 40°49' E 014°07'0 0.0
2018-Aug-11 10:00N 40°49' E 014°07'4 8.3
2018-Aug-11 09:30N 40°46' E 014°03'1 1.3
2018-Aug-11 09:00N 40°46' E 014°02'4 8.9
2018-Aug-11 08:30N 40°49' E 014°07'0 0.6
2018-Aug-11 08:00N 40°49' E 014°07'0 0.0
2018-Aug-11 07:30N 40°49' E 014°07'2 4.2
2018-Aug-11 07:00N 40°47' E 014°06'4 7.1
2018-Aug-11 06:29N 40°46' E 014°02'3 6.9
2018-Aug-11 06:00N 40°47' E 014°06'3 5.6
2018-Aug-11 05:31N 40°49' E 014°07'0 0.0
2018-Aug-10 15:21N 40°49' E 014°07'3 9.3
2018-Aug-10 15:00N 40°46' E 014°06'3 5.4
2018-Aug-10 14:30N 40°46' E 014°02'4 8.9
2018-Aug-10 14:00N 40°49' E 014°06'1 1.2
2018-Aug-10 13:30N 40°49' E 014°07'0 0.0
2018-Aug-10 13:00N 40°49' E 014°07'0 0.0
2018-Aug-10 12:30N 40°49' E 014°07'2 3.4
2018-Aug-10 12:00N 40°48' E 014°06'4 8.0
2018-Aug-10 11:30N 40°46' E 014°02'3 6.5
2018-Aug-10 11:00N 40°47' E 014°06'3 5.8
2018-Aug-10 10:30N 40°49' E 014°07'0 0.0
2018-Aug-10 10:00N 40°49' E 014°07'4 8.6
2018-Aug-10 09:30N 40°46' E 014°03'1 1.8
2018-Aug-10 09:00N 40°46' E 014°02'5 9.1
2018-Aug-10 08:30N 40°49' E 014°06'0 0.9
2018-Aug-10 08:00N 40°49' E 014°07'0 0.0
2018-Aug-10 07:30N 40°49' E 014°07'1 2.1
2018-Aug-10 07:00N 40°49' E 014°06'4 8.6
2018-Aug-10 06:30N 40°46' E 014°02'2 4.8
2018-Aug-10 06:00N 40°47' E 014°05'3 6.9
2018-Aug-10 05:30N 40°49' E 014°07'3 5.5
2018-Aug-10 05:00N 40°47' E 014°06'3 6.9
2018-Aug-10 04:30N 40°46' E 014°02'5 9.0
2018-Aug-10 04:00N 40°49' E 014°06'1 0.1
2018-Aug-09 15:21N 40°49' E 014°07'3 9.6
2018-Aug-09 15:00N 40°46' E 014°05'3 5.8
2018-Aug-09 14:30N 40°46' E 014°02'5 9.0
2018-Aug-09 14:00N 40°49' E 014°06'1 1.7
2018-Aug-09 13:30N 40°49' E 014°07'0 0.0
2018-Aug-09 13:00N 40°49' E 014°07'0 0.0
2018-Aug-09 12:30N 40°49' E 014°07'2 3.1
2018-Aug-09 12:00N 40°48' E 014°06'4 8.1
2018-Aug-09 11:30N 40°46' E 014°02'4 7.0
2018-Aug-09 11:00N 40°47' E 014°06'2 4.8
2018-Aug-09 10:30N 40°49' E 014°07'0 0.0
2018-Aug-09 10:00N 40°49' E 014°07'4 8.5
2018-Aug-09 09:30N 40°46' E 014°03'1 1.6
2018-Aug-09 09:00N 40°46' E 014°02'5 9.1
2018-Aug-09 08:30N 40°49' E 014°07'0 0.6
2018-Aug-09 07:59N 40°49' E 014°07'0 0.0
2018-Aug-09 07:27N 40°49' E 014°07'1 2.5
2018-Aug-09 07:00N 40°48' E 014°06'4 8.6
2018-Aug-09 06:30N 40°46' E 014°02'2 4.0
2018-Aug-09 06:00N 40°46' E 014°04'4 5.2
2018-Aug-09 05:19N 40°49' E 014°07'310.2
2018-Aug-09 05:00N 40°46' E 014°05'2 4.5
2018-Aug-09 04:30N 40°46' E 014°02'5 9.1
2018-Aug-09 04:00N 40°49' E 014°07'0 0.0
2018-Aug-08 15:22N 40°49' E 014°07'3 9.1
2018-Aug-08 15:00N 40°46' E 014°05'3 5.3
2018-Aug-08 14:28N 40°46' E 014°02'4 9.1
2018-Aug-08 14:00N 40°48' E 014°06'1 2.0
2018-Aug-08 13:24N 40°49' E 014°07'0 0.0
2018-Aug-08 12:51N 40°49' E 014°07'0 0.0
2018-Aug-08 12:25N 40°49' E 014°07'3 6.8
2018-Aug-08 12:00N 40°47' E 014°06'3 6.3
2018-Aug-08 11:28N 40°46' E 014°02'4 8.2
2018-Aug-08 11:01N 40°48' E 014°06'2 1.9
2018-Aug-08 09:59N 40°49' E 014°07'5 8.7
2018-Aug-08 09:27N 40°46' E 014°02'0 0.3
2018-Aug-08 09:00N 40°46' E 014°02'4 8.9
2018-Aug-08 08:30N 40°49' E 014°06'1 0.5
2018-Aug-08 07:28N 40°49' E 014°07'1 2.5
2018-Aug-08 07:00N 40°48' E 014°06'4 8.4
2018-Aug-08 06:30N 40°46' E 014°02'3 5.3
2018-Aug-08 06:00N 40°46' E 014°05'3 5.8
2018-Aug-08 05:26N 40°49' E 014°07'1 3.3
2018-Aug-08 05:00N 40°48' E 014°06'4 6.8
2018-Aug-08 04:24N 40°46' E 014°02'4 9.3
2018-Aug-08 04:00N 40°47' E 014°06'2 0.2
2018-Aug-07 15:22N 40°49' E 014°07'3 9.7
2018-Aug-07 15:00N 40°46' E 014°05'2 4.6
2018-Aug-07 14:30N 40°46' E 014°02'4 8.9
2018-Aug-07 14:00N 40°49' E 014°06'1 1.7
2018-Aug-07 13:30N 40°49' E 014°07'0 0.0
2018-Aug-07 13:00N 40°49' E 014°07'0 0.0
2018-Aug-07 12:28N 40°49' E 014°07'1 3.0
2018-Aug-07 12:00N 40°48' E 014°06'4 8.2
2018-Aug-07 11:30N 40°46' E 014°02'3 6.5
2018-Aug-07 11:00N 40°47' E 014°06'3 5.9
2018-Aug-07 10:30N 40°49' E 014°07'0 0.0
2018-Aug-07 10:00N 40°49' E 014°07'4 8.2
2018-Aug-07 09:30N 40°46' E 014°03'1 2.3
2018-Aug-07 09:00N 40°46' E 014°02'4 9.0
2018-Aug-07 08:30N 40°49' E 014°06'1 1.0
2018-Aug-07 07:58N 40°49' E 014°07'0 0.0
2018-Aug-07 07:29N 40°49' E 014°07'1 2.5
2018-Aug-07 07:00N 40°48' E 014°06'4 8.2
2018-Aug-07 06:29N 40°46' E 014°02'2 5.1
2018-Aug-07 06:00N 40°47' E 014°05'3 6.8
2018-Aug-07 05:30N 40°49' E 014°07'3 5.2
2018-Aug-07 05:00N 40°47' E 014°06'3 6.8
2018-Aug-07 04:30N 40°46' E 014°02'4 8.5
2018-Aug-07 04:00N 40°48' E 014°06'1 0.1
2018-Aug-06 15:22N 40°49' E 014°07'3 8.8
2018-Aug-06 15:00N 40°47' E 014°06'3 6.0
2018-Aug-06 14:30N 40°46' E 014°02'5 9.2
2018-Aug-06 14:00N 40°49' E 014°06'1 1.4
2018-Aug-06 13:30N 40°49' E 014°07'0 0.0
2018-Aug-06 13:00N 40°49' E 014°07'0 0.0
2018-Aug-06 12:30N 40°49' E 014°07'2 3.6
2018-Aug-06 12:00N 40°48' E 014°06'4 7.9
2018-Aug-06 11:30N 40°46' E 014°02'3 6.7
2018-Aug-06 11:00N 40°47' E 014°06'3 5.4
2018-Aug-06 10:30N 40°49' E 014°07'0 0.0
2018-Aug-06 10:00N 40°49' E 014°07'4 8.5
2018-Aug-06 09:30N 40°46' E 014°03'1 2.0
2018-Aug-06 09:00N 40°46' E 014°02'4 8.9
2018-Aug-06 08:30N 40°49' E 014°06'1 1.0
2018-Aug-06 08:00N 40°49' E 014°07'0 0.0
2018-Aug-06 07:30N 40°49' E 014°07'1 2.2
2018-Aug-06 07:00N 40°49' E 014°06'4 8.3
2018-Aug-06 06:29N 40°46' E 014°02'2 4.8
2018-Aug-06 06:00N 40°46' E 014°05'4 7.0
2018-Aug-06 05:30N 40°49' E 014°07'2 3.5
2018-Aug-06 05:00N 40°48' E 014°06'4 7.8
2018-Aug-06 04:30N 40°46' E 014°02'4 8.1
2018-Aug-06 04:00N 40°48' E 014°06'2 0.1
2018-Aug-05 15:19N 40°49' E 014°07'3 9.2
2018-Aug-05 15:00N 40°47' E 014°06'2 2.2
2018-Aug-05 14:00N 40°49' E 014°06'1 1.6
2018-Aug-05 13:30N 40°49' E 014°07'0 0.0
2018-Aug-05 13:00N 40°49' E 014°07'  

Dump ship's entire track history